sensor_id;sensor_type;location;lat;lon;timestamp;temperature;humidity
65568;DHT22;52211;50.154;8.682;2022-07-29T00:01:40;23.80;33.60
65568;DHT22;52211;50.154;8.682;2022-07-29T00:04:12;23.80;33.60
65568;DHT22;52211;50.154;8.682;2022-07-29T00:06:40;23.80;33.70
65568;DHT22;52211;50.154;8.682;2022-07-29T00:09:07;23.80;33.60
65568;DHT22;52211;50.154;8.682;2022-07-29T00:11:34;23.80;33.70
65568;DHT22;52211;50.154;8.682;2022-07-29T00:14:01;23.80;33.70
65568;DHT22;52211;50.154;8.682;2022-07-29T00:16:28;23.80;34.30
65568;DHT22;52211;50.154;8.682;2022-07-29T00:18:55;23.70;33.60
65568;DHT22;52211;50.154;8.682;2022-07-29T00:21:28;23.80;33.80
65568;DHT22;52211;50.154;8.682;2022-07-29T00:23:57;23.80;33.80
65568;DHT22;52211;50.154;8.682;2022-07-29T00:26:24;23.80;33.80
65568;DHT22;52211;50.154;8.682;2022-07-29T00:29:03;23.80;33.80
65568;DHT22;52211;50.154;8.682;2022-07-29T00:31:52;23.70;33.90
65568;DHT22;52211;50.154;8.682;2022-07-29T00:34:21;23.80;33.80
65568;DHT22;52211;50.154;8.682;2022-07-29T00:37:07;23.80;33.90
65568;DHT22;52211;50.154;8.682;2022-07-29T00:39:34;23.80;33.90
65568;DHT22;52211;50.154;8.682;2022-07-29T00:42:04;23.70;33.90
65568;DHT22;52211;50.154;8.682;2022-07-29T00:44:39;23.70;34.00
65568;DHT22;52211;50.154;8.682;2022-07-29T00:47:08;23.70;34.10
65568;DHT22;52211;50.154;8.682;2022-07-29T00:49:39;23.70;34.00
65568;DHT22;52211;50.154;8.682;2022-07-29T00:52:11;23.70;34.00
65568;DHT22;52211;50.154;8.682;2022-07-29T00:54:42;23.70;34.00
65568;DHT22;52211;50.154;8.682;2022-07-29T00:57:11;23.70;34.00
65568;DHT22;52211;50.154;8.682;2022-07-29T00:59:39;23.70;34.00
65568;DHT22;52211;50.154;8.682;2022-07-29T01:02:09;23.70;34.00
65568;DHT22;52211;50.154;8.682;2022-07-29T01:04:36;23.70;33.90
65568;DHT22;52211;50.154;8.682;2022-07-29T01:07:04;23.70;34.00
65568;DHT22;52211;50.154;8.682;2022-07-29T01:09:34;23.70;34.60
65568;DHT22;52211;50.154;8.682;2022-07-29T01:12:18;23.70;33.80
65568;DHT22;52211;50.154;8.682;2022-07-29T01:14:50;23.70;33.80
65568;DHT22;52211;50.154;8.682;2022-07-29T01:17:31;23.70;33.80
65568;DHT22;52211;50.154;8.682;2022-07-29T01:20:12;23.70;33.80
65568;DHT22;52211;50.154;8.682;2022-07-29T01:26:11;23.70;33.90
65568;DHT22;52211;50.154;8.682;2022-07-29T01:32:10;23.70;33.90
65568;DHT22;52211;50.154;8.682;2022-07-29T01:35:05;23.70;33.80
65568;DHT22;52211;50.154;8.682;2022-07-29T01:37:50;23.70;33.80
65568;DHT22;52211;50.154;8.682;2022-07-29T01:43:14;23.70;33.90
65568;DHT22;52211;50.154;8.682;2022-07-29T01:45:48;23.70;33.90
65568;DHT22;52211;50.154;8.682;2022-07-29T01:48:37;23.70;34.00
65568;DHT22;52211;50.154;8.682;2022-07-29T01:51:07;23.70;34.20
65568;DHT22;52211;50.154;8.682;2022-07-29T01:53:50;23.70;34.10
65568;DHT22;52211;50.154;8.682;2022-07-29T01:56:26;23.70;34.30
65568;DHT22;52211;50.154;8.682;2022-07-29T01:58:59;23.70;34.20
65568;DHT22;52211;50.154;8.682;2022-07-29T02:01:32;23.70;34.30
65568;DHT22;52211;50.154;8.682;2022-07-29T02:04:09;23.70;34.40
65568;DHT22;52211;50.154;8.682;2022-07-29T02:07:05;23.70;34.60
65568;DHT22;52211;50.154;8.682;2022-07-29T02:09:36;23.70;34.70
65568;DHT22;52211;50.154;8.682;2022-07-29T02:12:14;23.60;34.60
65568;DHT22;52211;50.154;8.682;2022-07-29T02:14:49;23.60;34.70
65568;DHT22;52211;50.154;8.682;2022-07-29T02:17:26;23.60;34.70
65568;DHT22;52211;50.154;8.682;2022-07-29T02:20:00;23.60;35.00
65568;DHT22;52211;50.154;8.682;2022-07-29T02:22:35;23.60;34.90
65568;DHT22;52211;50.154;8.682;2022-07-29T02:25:08;23.50;35.00
65568;DHT22;52211;50.154;8.682;2022-07-29T02:27:40;23.50;35.00
65568;DHT22;52211;50.154;8.682;2022-07-29T02:30:12;23.50;35.10
65568;DHT22;52211;50.154;8.682;2022-07-29T02:32:40;23.50;35.20
65568;DHT22;52211;50.154;8.682;2022-07-29T02:35:14;23.40;35.30
65568;DHT22;52211;50.154;8.682;2022-07-29T02:37:45;23.40;35.40
65568;DHT22;52211;50.154;8.682;2022-07-29T02:40:35;23.40;35.70
65568;DHT22;52211;50.154;8.682;2022-07-29T02:43:06;23.30;35.70
65568;DHT22;52211;50.154;8.682;2022-07-29T02:45:34;23.30;35.70
65568;DHT22;52211;50.154;8.682;2022-07-29T02:48:13;23.30;35.90
65568;DHT22;52211;50.154;8.682;2022-07-29T02:50:49;23.20;36.30
65568;DHT22;52211;50.154;8.682;2022-07-29T02:53:26;23.20;36.60
65568;DHT22;52211;50.154;8.682;2022-07-29T02:56:03;23.20;36.30
65568;DHT22;52211;50.154;8.682;2022-07-29T02:58:39;23.10;36.80
65568;DHT22;52211;50.154;8.682;2022-07-29T03:01:19;23.10;36.80
65568;DHT22;52211;50.154;8.682;2022-07-29T03:03:53;23.10;36.90
65568;DHT22;52211;50.154;8.682;2022-07-29T03:06:23;23.00;36.90
65568;DHT22;52211;50.154;8.682;2022-07-29T03:09:07;23.10;37.00
65568;DHT22;52211;50.154;8.682;2022-07-29T03:11:40;23.00;37.30
65568;DHT22;52211;50.154;8.682;2022-07-29T03:14:18;23.00;37.30
65568;DHT22;52211;50.154;8.682;2022-07-29T03:16:49;23.00;37.40
65568;DHT22;52211;50.154;8.682;2022-07-29T03:19:22;22.90;37.60
65568;DHT22;52211;50.154;8.682;2022-07-29T03:21:50;22.90;37.70
65568;DHT22;52211;50.154;8.682;2022-07-29T03:24:31;22.90;37.80
65568;DHT22;52211;50.154;8.682;2022-07-29T03:27:03;22.90;38.40
65568;DHT22;52211;50.154;8.682;2022-07-29T03:29:32;22.80;38.10
65568;DHT22;52211;50.154;8.682;2022-07-29T03:32:02;22.80;38.20
65568;DHT22;52211;50.154;8.682;2022-07-29T03:34:35;22.80;38.50
65568;DHT22;52211;50.154;8.682;2022-07-29T03:37:05;22.80;38.50
65568;DHT22;52211;50.154;8.682;2022-07-29T03:39:38;22.70;38.60
65568;DHT22;52211;50.154;8.682;2022-07-29T03:42:12;22.70;38.90
65568;DHT22;52211;50.154;8.682;2022-07-29T03:44:45;22.70;38.90
65568;DHT22;52211;50.154;8.682;2022-07-29T03:47:15;22.70;39.40
65568;DHT22;52211;50.154;8.682;2022-07-29T03:49:48;22.60;39.10
65568;DHT22;52211;50.154;8.682;2022-07-29T03:52:18;22.50;39.10
65568;DHT22;52211;50.154;8.682;2022-07-29T03:54:48;22.50;39.20
65568;DHT22;52211;50.154;8.682;2022-07-29T03:57:19;22.40;39.40
65568;DHT22;52211;50.154;8.682;2022-07-29T03:59:52;22.40;39.60
65568;DHT22;52211;50.154;8.682;2022-07-29T04:02:23;22.30;39.50
65568;DHT22;52211;50.154;8.682;2022-07-29T04:04:56;22.30;40.10
65568;DHT22;52211;50.154;8.682;2022-07-29T04:07:23;22.20;39.70
65568;DHT22;52211;50.154;8.682;2022-07-29T04:09:50;22.20;39.90
65568;DHT22;52211;50.154;8.682;2022-07-29T04:12:17;22.10;39.80
65568;DHT22;52211;50.154;8.682;2022-07-29T04:14:47;22.10;40.00
65568;DHT22;52211;50.154;8.682;2022-07-29T04:17:15;22.00;40.00
65568;DHT22;52211;50.154;8.682;2022-07-29T04:19:44;22.00;40.10
65568;DHT22;52211;50.154;8.682;2022-07-29T04:22:12;21.90;40.20
65568;DHT22;52211;50.154;8.682;2022-07-29T04:24:39;21.90;40.90
65568;DHT22;52211;50.154;8.682;2022-07-29T04:27:10;21.80;40.20
65568;DHT22;52211;50.154;8.682;2022-07-29T04:29:40;21.80;40.30
65568;DHT22;52211;50.154;8.682;2022-07-29T04:32:25;21.70;41.10
65568;DHT22;52211;50.154;8.682;2022-07-29T04:34:53;21.70;40.60
65568;DHT22;52211;50.154;8.682;2022-07-29T04:37:20;21.70;40.50
65568;DHT22;52211;50.154;8.682;2022-07-29T04:39:49;21.60;40.60
65568;DHT22;52211;50.154;8.682;2022-07-29T04:42:16;21.60;40.70
65568;DHT22;52211;50.154;8.682;2022-07-29T04:44:53;21.60;40.80
65568;DHT22;52211;50.154;8.682;2022-07-29T04:47:19;21.50;40.70
65568;DHT22;52211;50.154;8.682;2022-07-29T04:49:49;21.50;40.80
65568;DHT22;52211;50.154;8.682;2022-07-29T04:52:19;21.50;40.90
65568;DHT22;52211;50.154;8.682;2022-07-29T04:54:48;21.50;40.90
65568;DHT22;52211;50.154;8.682;2022-07-29T04:57:15;21.40;40.90
65568;DHT22;52211;50.154;8.682;2022-07-29T04:59:42;21.40;41.00
65568;DHT22;52211;50.154;8.682;2022-07-29T05:02:14;21.50;41.10
65568;DHT22;52211;50.154;8.682;2022-07-29T05:04:44;21.40;41.30
65568;DHT22;52211;50.154;8.682;2022-07-29T05:07:10;21.40;41.20
65568;DHT22;52211;50.154;8.682;2022-07-29T05:09:42;21.40;41.30
65568;DHT22;52211;50.154;8.682;2022-07-29T05:12:09;21.40;41.50
65568;DHT22;52211;50.154;8.682;2022-07-29T05:14:41;21.40;41.40
65568;DHT22;52211;50.154;8.682;2022-07-29T05:17:10;21.40;41.60
65568;DHT22;52211;50.154;8.682;2022-07-29T05:19:39;21.40;41.80
65568;DHT22;52211;50.154;8.682;2022-07-29T05:22:06;21.40;41.60
65568;DHT22;52211;50.154;8.682;2022-07-29T05:24:35;21.40;41.70
65568;DHT22;52211;50.154;8.682;2022-07-29T05:27:02;21.40;41.70
65568;DHT22;52211;50.154;8.682;2022-07-29T05:29:32;21.40;41.70
65568;DHT22;52211;50.154;8.682;2022-07-29T05:32:12;21.40;41.80
65568;DHT22;52211;50.154;8.682;2022-07-29T05:34:41;21.40;42.00
65568;DHT22;52211;50.154;8.682;2022-07-29T05:37:18;21.50;42.00
65568;DHT22;52211;50.154;8.682;2022-07-29T05:39:48;21.50;41.90
65568;DHT22;52211;50.154;8.682;2022-07-29T05:42:26;21.50;42.00
65568;DHT22;52211;50.154;8.682;2022-07-29T05:44:55;21.50;42.00
65568;DHT22;52211;50.154;8.682;2022-07-29T05:47:23;21.50;42.00
65568;DHT22;52211;50.154;8.682;2022-07-29T05:49:52;21.50;42.10
65568;DHT22;52211;50.154;8.682;2022-07-29T05:52:20;21.50;42.20
65568;DHT22;52211;50.154;8.682;2022-07-29T05:54:49;21.50;42.40
65568;DHT22;52211;50.154;8.682;2022-07-29T05:57:21;21.50;42.30
65568;DHT22;52211;50.154;8.682;2022-07-29T05:59:49;21.60;42.60
65568;DHT22;52211;50.154;8.682;2022-07-29T06:02:17;21.60;42.50
65568;DHT22;52211;50.154;8.682;2022-07-29T06:04:44;21.60;43.20
65568;DHT22;52211;50.154;8.682;2022-07-29T06:07:13;21.60;42.60
65568;DHT22;52211;50.154;8.682;2022-07-29T06:09:43;21.70;42.70
65568;DHT22;52211;50.154;8.682;2022-07-29T06:12:12;21.70;42.70
65568;DHT22;52211;50.154;8.682;2022-07-29T06:14:38;21.70;42.60
65568;DHT22;52211;50.154;8.682;2022-07-29T06:17:07;21.80;42.70
65568;DHT22;52211;50.154;8.682;2022-07-29T06:19:38;21.80;42.70
65568;DHT22;52211;50.154;8.682;2022-07-29T06:22:07;21.90;42.60
65568;DHT22;52211;50.154;8.682;2022-07-29T06:24:38;21.90;42.60
65568;DHT22;52211;50.154;8.682;2022-07-29T06:27:07;22.00;42.70
65568;DHT22;52211;50.154;8.682;2022-07-29T06:29:36;22.00;42.60
65568;DHT22;52211;50.154;8.682;2022-07-29T06:32:05;22.10;42.60
65568;DHT22;52211;50.154;8.682;2022-07-29T06:34:33;22.10;42.60
65568;DHT22;52211;50.154;8.682;2022-07-29T06:37:08;22.20;42.60
65568;DHT22;52211;50.154;8.682;2022-07-29T06:39:41;22.20;42.80
65568;DHT22;52211;50.154;8.682;2022-07-29T06:42:08;22.20;42.50
65568;DHT22;52211;50.154;8.682;2022-07-29T06:44:34;22.30;42.50
65568;DHT22;52211;50.154;8.682;2022-07-29T06:47:06;22.30;42.50
65568;DHT22;52211;50.154;8.682;2022-07-29T06:49:33;22.40;42.60
65568;DHT22;52211;50.154;8.682;2022-07-29T06:52:00;22.40;42.50
65568;DHT22;52211;50.154;8.682;2022-07-29T06:54:31;22.50;42.60
65568;DHT22;52211;50.154;8.682;2022-07-29T06:56:58;22.60;42.60
65568;DHT22;52211;50.154;8.682;2022-07-29T06:59:25;22.60;42.60
65568;DHT22;52211;50.154;8.682;2022-07-29T07:02:01;22.70;42.60
65568;DHT22;52211;50.154;8.682;2022-07-29T07:04:30;22.80;42.50
65568;DHT22;52211;50.154;8.682;2022-07-29T07:06:57;22.90;42.40
65568;DHT22;52211;50.154;8.682;2022-07-29T07:09:25;22.90;42.40
65568;DHT22;52211;50.154;8.682;2022-07-29T07:12:06;23.00;42.30
65568;DHT22;52211;50.154;8.682;2022-07-29T07:14:33;23.00;42.20
65568;DHT22;52211;50.154;8.682;2022-07-29T07:17:02;23.10;42.20
65568;DHT22;52211;50.154;8.682;2022-07-29T07:19:30;23.10;42.20
65568;DHT22;52211;50.154;8.682;2022-07-29T07:21:59;23.20;42.20
65568;DHT22;52211;50.154;8.682;2022-07-29T07:24:26;23.30;42.20
65568;DHT22;52211;50.154;8.682;2022-07-29T07:26:53;23.30;42.10
65568;DHT22;52211;50.154;8.682;2022-07-29T07:29:25;23.40;42.00
65568;DHT22;52211;50.154;8.682;2022-07-29T07:31:54;23.50;42.00
65568;DHT22;52211;50.154;8.682;2022-07-29T07:34:27;23.50;42.00
65568;DHT22;52211;50.154;8.682;2022-07-29T07:36:57;23.60;42.00
65568;DHT22;52211;50.154;8.682;2022-07-29T07:39:26;23.70;42.00
65568;DHT22;52211;50.154;8.682;2022-07-29T07:41:58;23.80;42.00
65568;DHT22;52211;50.154;8.682;2022-07-29T07:44:25;23.90;41.90
65568;DHT22;52211;50.154;8.682;2022-07-29T07:46:54;23.90;41.80
65568;DHT22;52211;50.154;8.682;2022-07-29T07:49:23;24.00;41.70
65568;DHT22;52211;50.154;8.682;2022-07-29T07:51:52;24.10;41.70
65568;DHT22;52211;50.154;8.682;2022-07-29T07:54:19;24.20;41.70
65568;DHT22;52211;50.154;8.682;2022-07-29T07:56:48;24.30;41.60
65568;DHT22;52211;50.154;8.682;2022-07-29T07:59:20;24.40;41.50
65568;DHT22;52211;50.154;8.682;2022-07-29T08:01:50;24.40;41.40
65568;DHT22;52211;50.154;8.682;2022-07-29T08:04:22;24.50;41.30
65568;DHT22;52211;50.154;8.682;2022-07-29T08:06:54;24.60;41.20
65568;DHT22;52211;50.154;8.682;2022-07-29T08:09:26;24.70;41.10
65568;DHT22;52211;50.154;8.682;2022-07-29T08:11:59;24.70;40.90
65568;DHT22;52211;50.154;8.682;2022-07-29T08:14:29;24.80;41.00
65568;DHT22;52211;50.154;8.682;2022-07-29T08:16:56;24.90;40.90
65568;DHT22;52211;50.154;8.682;2022-07-29T08:19:28;25.00;40.80
65568;DHT22;52211;50.154;8.682;2022-07-29T08:21:57;25.10;40.90
65568;DHT22;52211;50.154;8.682;2022-07-29T08:24:24;25.20;40.60
65568;DHT22;52211;50.154;8.682;2022-07-29T08:27:13;25.30;40.70
65568;DHT22;52211;50.154;8.682;2022-07-29T08:30:02;25.40;40.50
65568;DHT22;52211;50.154;8.682;2022-07-29T08:32:32;25.40;40.30
65568;DHT22;52211;50.154;8.682;2022-07-29T08:35:23;25.50;40.30
65568;DHT22;52211;50.154;8.682;2022-07-29T08:37:53;25.60;40.20
65568;DHT22;52211;50.154;8.682;2022-07-29T08:40:23;25.70;39.90
65568;DHT22;52211;50.154;8.682;2022-07-29T08:43:03;25.80;39.90
65568;DHT22;52211;50.154;8.682;2022-07-29T08:45:46;25.90;39.70
65568;DHT22;52211;50.154;8.682;2022-07-29T08:48:21;26.00;39.50
65568;DHT22;52211;50.154;8.682;2022-07-29T08:50:55;26.10;39.50
65568;DHT22;52211;50.154;8.682;2022-07-29T08:53:27;26.20;39.40
65568;DHT22;52211;50.154;8.682;2022-07-29T08:55:55;26.20;39.20
65568;DHT22;52211;50.154;8.682;2022-07-29T08:58:23;26.30;39.20
65568;DHT22;52211;50.154;8.682;2022-07-29T09:00:56;26.40;39.30
65568;DHT22;52211;50.154;8.682;2022-07-29T09:03:30;26.50;39.20
65568;DHT22;52211;50.154;8.682;2022-07-29T09:05:59;26.60;39.20
65568;DHT22;52211;50.154;8.682;2022-07-29T09:08:31;26.60;39.00
65568;DHT22;52211;50.154;8.682;2022-07-29T09:11:01;26.70;39.00
65568;DHT22;52211;50.154;8.682;2022-07-29T09:13:31;26.90;39.10
65568;DHT22;52211;50.154;8.682;2022-07-29T09:16:03;26.90;38.90
65568;DHT22;52211;50.154;8.682;2022-07-29T09:18:37;27.10;38.90
65568;DHT22;52211;50.154;8.682;2022-07-29T09:21:07;27.20;38.90
65568;DHT22;52211;50.154;8.682;2022-07-29T09:26:47;27.30;38.40
65568;DHT22;52211;50.154;8.682;2022-07-29T09:29:16;27.40;38.30
65568;DHT22;52211;50.154;8.682;2022-07-29T09:31:50;27.50;38.40
65568;DHT22;52211;50.154;8.682;2022-07-29T09:36:53;27.70;38.40
65568;DHT22;52211;50.154;8.682;2022-07-29T09:39:34;27.80;38.50
65568;DHT22;52211;50.154;8.682;2022-07-29T09:42:12;27.90;38.30
65568;DHT22;52211;50.154;8.682;2022-07-29T09:44:44;28.00;38.40
65568;DHT22;52211;50.154;8.682;2022-07-29T09:47:21;28.10;38.40
65568;DHT22;52211;50.154;8.682;2022-07-29T09:49:59;28.20;38.20
65568;DHT22;52211;50.154;8.682;2022-07-29T09:52:31;28.30;38.30
65568;DHT22;52211;50.154;8.682;2022-07-29T09:55:05;28.40;38.10
65568;DHT22;52211;50.154;8.682;2022-07-29T09:57:44;28.60;38.10
65568;DHT22;52211;50.154;8.682;2022-07-29T10:00:18;28.60;38.00
65568;DHT22;52211;50.154;8.682;2022-07-29T10:02:49;28.70;37.60
65568;DHT22;52211;50.154;8.682;2022-07-29T10:05:25;28.80;37.70
65568;DHT22;52211;50.154;8.682;2022-07-29T10:08:02;28.80;38.20
65568;DHT22;52211;50.154;8.682;2022-07-29T10:10:32;28.90;37.60
65568;DHT22;52211;50.154;8.682;2022-07-29T10:13:06;28.90;37.60
65568;DHT22;52211;50.154;8.682;2022-07-29T10:15:42;29.00;37.50
65568;DHT22;52211;50.154;8.682;2022-07-29T10:18:14;29.20;37.50
65568;DHT22;52211;50.154;8.682;2022-07-29T10:20:43;29.30;37.40
65568;DHT22;52211;50.154;8.682;2022-07-29T10:23:10;29.40;37.20
65568;DHT22;52211;50.154;8.682;2022-07-29T10:25:39;29.40;37.20
65568;DHT22;52211;50.154;8.682;2022-07-29T10:28:12;29.60;37.30
65568;DHT22;52211;50.154;8.682;2022-07-29T10:30:45;29.70;37.20
65568;DHT22;52211;50.154;8.682;2022-07-29T10:33:48;29.90;37.10
65568;DHT22;52211;50.154;8.682;2022-07-29T10:36:55;30.00;36.80
65568;DHT22;52211;50.154;8.682;2022-07-29T10:39:52;30.20;36.60
65568;DHT22;52211;50.154;8.682;2022-07-29T10:42:28;30.40;36.40
65568;DHT22;52211;50.154;8.682;2022-07-29T10:45:01;30.50;36.30
65568;DHT22;52211;50.154;8.682;2022-07-29T10:47:30;30.60;36.30
65568;DHT22;52211;50.154;8.682;2022-07-29T10:50:06;30.80;36.30
65568;DHT22;52211;50.154;8.682;2022-07-29T10:53:04;30.80;35.50
65568;DHT22;52211;50.154;8.682;2022-07-29T10:55:40;31.00;36.00
65568;DHT22;52211;50.154;8.682;2022-07-29T10:58:17;31.00;35.60
65568;DHT22;52211;50.154;8.682;2022-07-29T11:00:50;31.20;35.80
65568;DHT22;52211;50.154;8.682;2022-07-29T11:03:42;31.40;35.80
65568;DHT22;52211;50.154;8.682;2022-07-29T11:06:21;31.60;35.60
65568;DHT22;52211;50.154;8.682;2022-07-29T11:09:19;31.80;35.60
65568;DHT22;52211;50.154;8.682;2022-07-29T11:12:03;32.00;35.30
65568;DHT22;52211;50.154;8.682;2022-07-29T11:15:00;32.20;35.00
65568;DHT22;52211;50.154;8.682;2022-07-29T11:17:29;32.40;34.80
65568;DHT22;52211;50.154;8.682;2022-07-29T11:20:42;32.50;34.30
65568;DHT22;52211;50.154;8.682;2022-07-29T11:23:31;32.50;34.20
65568;DHT22;52211;50.154;8.682;2022-07-29T11:26:15;32.60;34.10
65568;DHT22;52211;50.154;8.682;2022-07-29T11:34:28;33.20;34.40
65568;DHT22;52211;50.154;8.682;2022-07-29T11:45:15;34.00;33.60
65568;DHT22;52211;50.154;8.682;2022-07-29T11:48:05;34.30;33.10
65568;DHT22;52211;50.154;8.682;2022-07-29T11:50:56;34.50;33.10
65568;DHT22;52211;50.154;8.682;2022-07-29T11:53:27;34.70;32.70
65568;DHT22;52211;50.154;8.682;2022-07-29T11:55:59;34.80;32.60
65568;DHT22;52211;50.154;8.682;2022-07-29T11:58:31;34.90;32.50
65568;DHT22;52211;50.154;8.682;2022-07-29T12:01:03;35.10;32.20
65568;DHT22;52211;50.154;8.682;2022-07-29T12:03:32;35.20;32.40
65568;DHT22;52211;50.154;8.682;2022-07-29T12:06:19;35.40;32.30
65568;DHT22;52211;50.154;8.682;2022-07-29T12:08:46;35.50;32.90
65568;DHT22;52211;50.154;8.682;2022-07-29T12:11:18;35.70;32.10
65568;DHT22;52211;50.154;8.682;2022-07-29T12:13:52;35.90;31.90
65568;DHT22;52211;50.154;8.682;2022-07-29T12:16:21;36.10;31.60
65568;DHT22;52211;50.154;8.682;2022-07-29T12:18:58;36.30;31.80
65568;DHT22;52211;50.154;8.682;2022-07-29T12:21:29;36.60;31.80
65568;DHT22;52211;50.154;8.682;2022-07-29T12:24:19;36.90;31.50
65568;DHT22;52211;50.154;8.682;2022-07-29T12:26:56;37.30;31.30
65568;DHT22;52211;50.154;8.682;2022-07-29T12:29:25;37.60;31.20
65568;DHT22;52211;50.154;8.682;2022-07-29T12:32:02;37.80;30.80
65568;DHT22;52211;50.154;8.682;2022-07-29T12:34:42;38.10;30.70
65568;DHT22;52211;50.154;8.682;2022-07-29T12:37:10;38.30;30.40
65568;DHT22;52211;50.154;8.682;2022-07-29T12:39:37;38.50;30.20
65568;DHT22;52211;50.154;8.682;2022-07-29T12:42:12;38.80;30.00
65568;DHT22;52211;50.154;8.682;2022-07-29T12:44:50;39.00;29.90
65568;DHT22;52211;50.154;8.682;2022-07-29T12:47:19;39.20;29.60
65568;DHT22;52211;50.154;8.682;2022-07-29T12:49:50;39.40;29.80
65568;DHT22;52211;50.154;8.682;2022-07-29T12:52:32;39.80;29.70
65568;DHT22;52211;50.154;8.682;2022-07-29T12:55:00;40.00;29.00
65568;DHT22;52211;50.154;8.682;2022-07-29T12:57:35;40.20;29.00
65568;DHT22;52211;50.154;8.682;2022-07-29T13:00:13;40.30;28.70
65568;DHT22;52211;50.154;8.682;2022-07-29T13:02:46;40.40;28.70
65568;DHT22;52211;50.154;8.682;2022-07-29T13:05:21;40.60;28.40
65568;DHT22;52211;50.154;8.682;2022-07-29T13:07:48;40.70;28.40
65568;DHT22;52211;50.154;8.682;2022-07-29T13:10:22;40.70;27.90
65568;DHT22;52211;50.154;8.682;2022-07-29T13:13:08;40.70;27.80
65568;DHT22;52211;50.154;8.682;2022-07-29T13:15:40;40.70;27.90
65568;DHT22;52211;50.154;8.682;2022-07-29T13:18:33;40.80;28.10
65568;DHT22;52211;50.154;8.682;2022-07-29T13:21:14;41.00;28.30
65568;DHT22;52211;50.154;8.682;2022-07-29T13:23:42;41.30;27.40
65568;DHT22;52211;50.154;8.682;2022-07-29T13:26:10;41.40;27.70
65568;DHT22;52211;50.154;8.682;2022-07-29T13:28:44;41.50;27.70
65568;DHT22;52211;50.154;8.682;2022-07-29T13:31:11;41.60;27.40
65568;DHT22;52211;50.154;8.682;2022-07-29T13:33:38;41.70;27.20
65568;DHT22;52211;50.154;8.682;2022-07-29T13:36:07;41.80;27.10
65568;DHT22;52211;50.154;8.682;2022-07-29T13:38:37;41.80;27.00
65568;DHT22;52211;50.154;8.682;2022-07-29T13:41:08;41.90;26.90
65568;DHT22;52211;50.154;8.682;2022-07-29T13:43:37;41.90;26.70
65568;DHT22;52211;50.154;8.682;2022-07-29T13:46:09;42.00;26.60
65568;DHT22;52211;50.154;8.682;2022-07-29T13:48:36;42.00;26.70
65568;DHT22;52211;50.154;8.682;2022-07-29T13:51:03;42.00;26.60
65568;DHT22;52211;50.154;8.682;2022-07-29T13:53:34;42.10;26.40
65568;DHT22;52211;50.154;8.682;2022-07-29T13:56:03;42.20;26.30
65568;DHT22;52211;50.154;8.682;2022-07-29T13:58:33;42.30;26.30
65568;DHT22;52211;50.154;8.682;2022-07-29T14:01:02;42.30;26.10
65568;DHT22;52211;50.154;8.682;2022-07-29T14:03:31;42.30;26.00
65568;DHT22;52211;50.154;8.682;2022-07-29T14:05:59;42.20;25.90
65568;DHT22;52211;50.154;8.682;2022-07-29T14:08:26;42.00;25.90
65568;DHT22;52211;50.154;8.682;2022-07-29T14:10:56;41.80;25.80
65568;DHT22;52211;50.154;8.682;2022-07-29T14:13:25;41.50;25.60
65568;DHT22;52211;50.154;8.682;2022-07-29T14:15:57;41.00;25.50
65568;DHT22;52211;50.154;8.682;2022-07-29T14:18:24;40.60;25.80
65568;DHT22;52211;50.154;8.682;2022-07-29T14:20:53;40.20;25.80
65568;DHT22;52211;50.154;8.682;2022-07-29T14:23:20;39.80;26.00
65568;DHT22;52211;50.154;8.682;2022-07-29T14:25:49;39.40;25.90
65568;DHT22;52211;50.154;8.682;2022-07-29T14:28:18;39.00;25.90
65568;DHT22;52211;50.154;8.682;2022-07-29T14:30:49;38.60;26.00
65568;DHT22;52211;50.154;8.682;2022-07-29T14:33:15;38.20;26.20
65568;DHT22;52211;50.154;8.682;2022-07-29T14:35:42;37.80;27.00
65568;DHT22;52211;50.154;8.682;2022-07-29T14:38:12;37.40;27.90
65568;DHT22;52211;50.154;8.682;2022-07-29T14:40:39;37.00;28.50
65568;DHT22;52211;50.154;8.682;2022-07-29T14:43:10;36.50;28.80
65568;DHT22;52211;50.154;8.682;2022-07-29T14:45:37;35.90;29.40
65568;DHT22;52211;50.154;8.682;2022-07-29T14:48:07;35.40;29.30
65568;DHT22;52211;50.154;8.682;2022-07-29T14:50:34;35.00;29.90
65568;DHT22;52211;50.154;8.682;2022-07-29T14:53:01;34.60;30.00
65568;DHT22;52211;50.154;8.682;2022-07-29T14:55:30;34.20;30.30
65568;DHT22;52211;50.154;8.682;2022-07-29T14:58:00;34.00;30.70
65568;DHT22;52211;50.154;8.682;2022-07-29T15:00:41;33.70;30.80
65568;DHT22;52211;50.154;8.682;2022-07-29T15:03:11;33.40;30.90
65568;DHT22;52211;50.154;8.682;2022-07-29T15:05:49;33.20;31.20
65568;DHT22;52211;50.154;8.682;2022-07-29T15:08:19;32.90;31.40
65568;DHT22;52211;50.154;8.682;2022-07-29T15:10:46;32.80;31.60
65568;DHT22;52211;50.154;8.682;2022-07-29T15:13:16;32.60;31.70
65568;DHT22;52211;50.154;8.682;2022-07-29T15:15:43;32.40;31.70
65568;DHT22;52211;50.154;8.682;2022-07-29T15:18:11;32.30;31.90
65568;DHT22;52211;50.154;8.682;2022-07-29T15:20:51;32.20;32.00
65568;DHT22;52211;50.154;8.682;2022-07-29T15:23:21;32.10;31.90
65568;DHT22;52211;50.154;8.682;2022-07-29T15:25:51;32.00;32.00
65568;DHT22;52211;50.154;8.682;2022-07-29T15:28:17;32.00;32.20
65568;DHT22;52211;50.154;8.682;2022-07-29T15:30:44;32.00;32.20
65568;DHT22;52211;50.154;8.682;2022-07-29T15:33:11;32.00;32.10
65568;DHT22;52211;50.154;8.682;2022-07-29T15:35:38;32.00;32.10
65568;DHT22;52211;50.154;8.682;2022-07-29T15:38:08;32.00;32.00
65568;DHT22;52211;50.154;8.682;2022-07-29T15:40:37;31.90;31.90
65568;DHT22;52211;50.154;8.682;2022-07-29T15:43:07;31.90;31.80
65568;DHT22;52211;50.154;8.682;2022-07-29T15:45:40;31.90;32.60
65568;DHT22;52211;50.154;8.682;2022-07-29T15:48:28;31.90;32.00
65568;DHT22;52211;50.154;8.682;2022-07-29T15:51:01;31.90;31.70
65568;DHT22;52211;50.154;8.682;2022-07-29T15:53:32;31.90;31.90
65568;DHT22;52211;50.154;8.682;2022-07-29T15:56:03;31.90;31.60
65568;DHT22;52211;50.154;8.682;2022-07-29T15:58:37;31.90;31.30
65568;DHT22;52211;50.154;8.682;2022-07-29T16:01:04;31.90;31.20
65568;DHT22;52211;50.154;8.682;2022-07-29T16:03:31;31.90;31.30
65568;DHT22;52211;50.154;8.682;2022-07-29T16:05:59;31.90;31.10
65568;DHT22;52211;50.154;8.682;2022-07-29T16:08:31;31.90;31.20
65568;DHT22;52211;50.154;8.682;2022-07-29T16:11:01;31.80;31.20
65568;DHT22;52211;50.154;8.682;2022-07-29T16:13:31;31.80;31.30
65568;DHT22;52211;50.154;8.682;2022-07-29T16:15:58;31.70;31.30
65568;DHT22;52211;50.154;8.682;2022-07-29T16:18:31;31.60;31.30
65568;DHT22;52211;50.154;8.682;2022-07-29T16:20:58;31.60;31.40
65568;DHT22;52211;50.154;8.682;2022-07-29T16:23:24;31.50;31.50
65568;DHT22;52211;50.154;8.682;2022-07-29T16:25:51;31.40;31.80
65568;DHT22;52211;50.154;8.682;2022-07-29T16:28:27;31.40;32.20
65568;DHT22;52211;50.154;8.682;2022-07-29T16:30:58;31.30;32.60
65568;DHT22;52211;50.154;8.682;2022-07-29T16:33:27;31.10;32.80